createdAt,value
2018-11-29T00:00:36.542Z,1012.44
2018-11-29T00:01:37.003Z,1012.37
2018-11-29T00:02:37.144Z,1012.42
2018-11-29T00:03:37.293Z,1012.36
2018-11-29T00:04:37.382Z,1012.33
2018-11-29T00:05:37.480Z,1012.32
2018-11-29T00:06:37.531Z,1012.34
2018-11-29T00:07:37.666Z,1012.30
2018-11-29T00:08:37.764Z,1012.41
2018-11-29T00:09:37.839Z,1012.36
2018-11-29T00:10:38.341Z,1012.29
2018-11-29T00:11:38.744Z,1012.29
2018-11-29T00:12:38.841Z,1012.27
2018-11-29T00:13:38.851Z,1012.30
2018-11-29T00:14:38.913Z,1012.29
2018-11-29T00:15:38.705Z,1012.31
2018-11-29T00:16:39.072Z,1012.27
2018-11-29T00:17:39.465Z,1012.26
2018-11-29T00:18:39.753Z,1012.27
2018-11-29T00:19:40.024Z,1012.29
2018-11-29T00:20:40.329Z,1012.31
2018-11-29T00:21:40.599Z,1012.24
2018-11-29T00:22:41.057Z,1012.26
2018-11-29T00:23:41.065Z,1012.31
2018-11-29T00:24:41.380Z,1012.30
2018-11-29T00:25:41.670Z,1012.29
2018-11-29T00:26:41.971Z,1012.20
2018-11-29T00:27:42.233Z,1012.24
2018-11-29T00:28:42.750Z,1012.26
2018-11-29T00:29:43.163Z,1012.22
2018-11-29T00:30:43.465Z,1012.17
2018-11-29T00:31:43.735Z,1012.20
2018-11-29T00:32:44.026Z,1012.16
2018-11-29T00:33:44.355Z,1012.24
2018-11-29T00:34:44.633Z,1012.25
2018-11-29T00:35:44.990Z,1012.19
2018-11-29T00:36:45.287Z,1012.18
2018-11-29T00:37:45.604Z,1012.20
2018-11-29T00:38:46.130Z,1012.15
2018-11-29T00:39:46.411Z,1012.23
2018-11-29T00:40:46.872Z,1012.19
2018-11-29T00:41:47.176Z,1012.22
2018-11-29T00:42:47.509Z,1012.18
2018-11-29T00:43:47.999Z,1012.17
2018-11-29T00:44:48.622Z,1012.19
2018-11-29T00:45:48.777Z,1012.13
2018-11-29T00:46:48.929Z,1012.15
2018-11-29T00:47:49.045Z,1012.21
2018-11-29T00:48:49.415Z,1012.17
2018-11-29T00:49:49.607Z,1012.18
2018-11-29T00:50:49.776Z,1012.17
2018-11-29T00:51:49.931Z,1012.10
2018-11-29T00:52:50.103Z,1012.08
2018-11-29T00:53:50.310Z,1012.06
2018-11-29T00:54:50.496Z,1012.06
2018-11-29T00:55:50.686Z,1012.05
2018-11-29T00:56:50.841Z,1012.02
2018-11-29T00:57:50.954Z,1012.08
2018-11-29T00:58:51.072Z,1012.08
2018-11-29T00:59:51.181Z,1012.14
2018-11-29T01:00:51.342Z,1012.13
2018-11-29T01:01:51.426Z,1012.14
2018-11-29T01:02:51.712Z,1012.15
2018-11-29T01:03:51.898Z,1012.17
2018-11-29T01:04:52.023Z,1012.19
2018-11-29T01:05:52.179Z,1012.19
2018-11-29T01:06:52.272Z,1012.14
2018-11-29T01:07:52.419Z,1012.25
2018-11-29T01:08:52.498Z,1012.22
2018-11-29T01:09:52.818Z,1012.20
2018-11-29T01:10:52.917Z,1012.22
2018-11-29T01:11:53.006Z,1012.26
2018-11-29T01:12:53.082Z,1012.29
2018-11-29T01:13:53.160Z,1012.21
2018-11-29T01:14:53.269Z,1012.29
2018-11-29T01:15:53.355Z,1012.16
2018-11-29T01:16:53.425Z,1012.14
2018-11-29T01:17:53.506Z,1012.13
2018-11-29T01:18:53.790Z,1012.16
2018-11-29T01:19:53.833Z,1012.20
2018-11-29T01:20:53.823Z,1012.15
2018-11-29T01:21:54.155Z,1012.16
2018-11-29T01:22:54.424Z,1012.27
2018-11-29T01:23:54.725Z,1012.24
2018-11-29T01:24:54.978Z,1012.20
2018-11-29T01:25:55.298Z,1012.20
2018-11-29T01:26:55.563Z,1012.05
2018-11-29T01:27:55.855Z,1012.03
2018-11-29T01:28:56.211Z,1011.98
2018-11-29T01:29:56.522Z,1012.01
2018-11-29T01:30:56.973Z,1011.92
2018-11-29T01:31:57.278Z,1011.97
2018-11-29T01:32:57.583Z,1011.89
2018-11-29T01:33:57.857Z,1011.77
2018-11-29T01:34:58.144Z,1011.73
2018-11-29T01:35:58.441Z,1011.75
2018-11-29T01:36:58.708Z,1011.78
2018-11-29T01:37:59.006Z,1011.78
2018-11-29T01:39:59.520Z,1011.69
2018-11-29T01:40:59.807Z,1011.74
2018-11-29T01:42:00.071Z,1011.83
2018-11-29T01:43:00.364Z,1011.72
2018-11-29T01:44:00.637Z,1011.79
2018-11-29T01:45:01.110Z,1011.72
2018-11-29T01:46:01.438Z,1011.75
2018-11-29T01:47:02.009Z,1011.79
2018-11-29T01:48:01.918Z,1011.76
2018-11-29T01:49:02.217Z,1011.80
2018-11-29T01:50:02.377Z,1011.84
2018-11-29T01:51:02.419Z,1011.92
2018-11-29T01:52:02.893Z,1012.01
2018-11-29T01:53:02.939Z,1012.01
2018-11-29T01:54:03.022Z,1012.02
2018-11-29T01:55:03.604Z,1012.02
2018-11-29T01:56:03.783Z,1012.02
2018-11-29T01:57:03.926Z,1012.07
2018-11-29T01:58:04.050Z,1012.13
2018-11-29T01:59:04.207Z,1012.12
2018-11-29T02:00:04.360Z,1012.18
2018-11-29T02:01:04.391Z,1012.17
2018-11-29T02:02:04.513Z,1012.15
2018-11-29T02:03:04.622Z,1012.22
2018-11-29T02:04:04.798Z,1012.14
2018-11-29T02:05:04.934Z,1012.20
2018-11-29T02:06:05.230Z,1012.14
2018-11-29T02:07:05.368Z,1012.11
2018-11-29T02:08:05.438Z,1012.11
2018-11-29T02:09:05.572Z,1012.06
2018-11-29T02:10:06.059Z,1011.99
2018-11-29T02:11:06.392Z,1011.97
2018-11-29T02:12:06.477Z,1011.89
2018-11-29T02:13:06.596Z,1011.97
2018-11-29T02:14:06.682Z,1011.92
2018-11-29T02:15:06.754Z,1011.91
2018-11-29T02:16:06.922Z,1011.98
2018-11-29T02:17:07.033Z,1011.98
2018-11-29T02:18:07.163Z,1011.96
2018-11-29T02:19:07.246Z,1011.94
2018-11-29T02:20:07.341Z,1011.93
2018-11-29T02:21:07.510Z,1011.87
2018-11-29T02:22:07.608Z,1011.94
2018-11-29T02:23:07.696Z,1011.86
2018-11-29T02:24:07.687Z,1011.90
2018-11-29T02:25:07.978Z,1011.88
2018-11-29T02:26:08.567Z,1011.92
2018-11-29T02:27:08.841Z,1011.97
2018-11-29T02:28:08.621Z,1011.85
2018-11-29T02:29:09.019Z,1011.86
2018-11-29T02:30:09.285Z,1011.89
2018-11-29T02:31:09.544Z,1011.85
2018-11-29T02:33:09.859Z,1011.90
2018-11-29T02:34:10.139Z,1011.72
2018-11-29T02:35:10.755Z,1011.72
2018-11-29T02:36:10.542Z,1011.78
2018-11-29T02:37:10.886Z,1011.78
2018-11-29T02:38:11.175Z,1011.88
2018-11-29T02:39:11.468Z,1011.90
2018-11-29T02:40:11.845Z,1011.82
2018-11-29T02:41:12.035Z,1011.90
2018-11-29T02:42:12.313Z,1011.90
2018-11-29T02:43:12.596Z,1011.88
2018-11-29T02:44:12.895Z,1011.91
2018-11-29T02:45:13.500Z,1011.89
2018-11-29T02:46:13.604Z,1011.90
2018-11-29T02:47:13.864Z,1011.89
2018-11-29T02:48:14.150Z,1011.85
2018-11-29T02:49:14.459Z,1011.76
2018-11-29T02:50:14.975Z,1011.75
2018-11-29T02:51:14.762Z,1011.68
2018-11-29T02:52:15.046Z,1011.67
2018-11-29T02:53:15.318Z,1011.73
2018-11-29T02:54:15.671Z,1011.63
2018-11-29T02:55:16.178Z,1011.74
2018-11-29T02:56:16.457Z,1011.62
2018-11-29T02:57:16.759Z,1011.63
2018-11-29T02:58:17.054Z,1011.66
2018-11-29T02:59:17.350Z,1011.57
2018-11-29T03:00:17.640Z,1011.72
2018-11-29T03:01:18.401Z,1011.68
2018-11-29T03:02:18.508Z,1011.63
2018-11-29T03:03:18.640Z,1011.69
2018-11-29T03:04:18.754Z,1011.65
2018-11-29T03:05:18.849Z,1011.66
2018-11-29T03:06:18.945Z,1011.64
2018-11-29T03:07:19.078Z,1011.70
2018-11-29T03:09:19.255Z,1011.69
2018-11-29T03:10:19.395Z,1011.67
2018-11-29T03:11:19.561Z,1011.60
2018-11-29T03:12:19.723Z,1011.56
2018-11-29T03:13:19.881Z,1011.57
2018-11-29T03:14:20.036Z,1011.61
2018-11-29T03:15:20.164Z,1011.47
2018-11-29T03:16:20.393Z,1011.44
2018-11-29T03:17:20.571Z,1011.35
2018-11-29T03:18:20.696Z,1011.35
2018-11-29T03:19:20.852Z,1011.28
2018-11-29T03:20:20.939Z,1011.30
2018-11-29T03:21:21.093Z,1011.33
2018-11-29T03:22:21.209Z,1011.25
2018-11-29T03:23:21.248Z,1011.25
2018-11-29T03:24:21.300Z,1011.20
2018-11-29T03:25:21.397Z,1011.19
2018-11-29T03:26:21.467Z,1011.19
2018-11-29T03:27:21.638Z,1011.13
2018-11-29T03:28:21.741Z,1011.19
2018-11-29T03:29:21.859Z,1011.16
2018-11-29T03:30:22.058Z,1011.10
2018-11-29T03:31:22.156Z,1011.07
2018-11-29T03:32:22.266Z,1011.04
2018-11-29T03:33:22.382Z,1011.12
2018-11-29T03:34:22.461Z,1011.10
2018-11-29T03:35:22.550Z,1011.11
2018-11-29T03:36:22.638Z,1011.10
2018-11-29T03:37:22.714Z,1011.06
2018-11-29T03:38:22.807Z,1011.01
2018-11-29T03:39:22.941Z,1010.97
2018-11-29T03:40:22.962Z,1010.96
2018-11-29T03:41:23.054Z,1010.96
2018-11-29T03:42:23.157Z,1010.94
2018-11-29T03:43:23.238Z,1010.96
2018-11-29T03:44:23.364Z,1010.84
2018-11-29T03:45:23.443Z,1010.93
2018-11-29T03:46:23.544Z,1010.82
2018-11-29T03:47:23.735Z,1010.77
2018-11-29T03:48:23.801Z,1010.76
2018-11-29T03:49:23.824Z,1010.83
2018-11-29T03:50:23.831Z,1010.80
2018-11-29T03:51:23.958Z,1010.78
2018-11-29T03:52:23.958Z,1010.78
2018-11-29T03:53:23.711Z,1010.81
2018-11-29T03:54:24.221Z,1010.80
2018-11-29T03:55:24.114Z,1010.87
2018-11-29T03:56:24.401Z,1010.85
2018-11-29T03:57:24.714Z,1010.83
2018-11-29T03:58:24.973Z,1010.87
2018-11-29T03:59:25.533Z,1010.73
2018-11-29T04:00:25.493Z,1010.78
2018-11-29T04:01:25.899Z,1010.84
2018-11-29T04:02:26.422Z,1010.84
2018-11-29T04:03:26.216Z,1010.82
2018-11-29T04:04:26.504Z,1010.89
2018-11-29T04:05:26.793Z,1010.91
2018-11-29T04:06:27.099Z,1010.94
2018-11-29T04:07:27.499Z,1011.01
2018-11-29T04:08:27.848Z,1011.02
2018-11-29T04:09:28.377Z,1011.03
2018-11-29T04:10:28.163Z,1011.04
2018-11-29T04:11:28.474Z,1011.13
2018-11-29T04:12:28.746Z,1011.05
2018-11-29T04:13:29.136Z,1011.10
2018-11-29T04:14:29.421Z,1011.04
2018-11-29T04:15:29.732Z,1010.99
2018-11-29T04:16:30.169Z,1010.95
2018-11-29T04:17:30.556Z,1010.96
2018-11-29T04:18:30.842Z,1010.99
2018-11-29T04:19:31.176Z,1010.92
2018-11-29T04:20:31.458Z,1010.92
2018-11-29T04:21:31.729Z,1010.90
2018-11-29T04:22:32.172Z,1010.96
2018-11-29T04:23:32.450Z,1011.00
2018-11-29T04:24:32.781Z,1010.95
2018-11-29T04:25:33.324Z,1010.96
2018-11-29T04:26:33.337Z,1011.01
2018-11-29T04:27:33.405Z,1010.96
2018-11-29T04:28:33.500Z,1011.05
2018-11-29T04:29:33.583Z,1011.01
2018-11-29T04:30:33.648Z,1010.99
2018-11-29T04:31:33.768Z,1011.06
2018-11-29T04:32:33.882Z,1011.08
2018-11-29T04:33:34.018Z,1011.14
2018-11-29T04:34:34.137Z,1011.07
2018-11-29T04:35:34.280Z,1011.16
2018-11-29T04:36:34.421Z,1011.14
2018-11-29T04:37:34.546Z,1011.18
2018-11-29T04:38:34.859Z,1011.21
2018-11-29T04:39:34.954Z,1011.17
2018-11-29T04:40:35.104Z,1011.20
2018-11-29T04:41:35.229Z,1011.15
2018-11-29T04:42:35.410Z,1011.17
2018-11-29T04:43:35.560Z,1011.17
2018-11-29T04:44:35.714Z,1011.17
2018-11-29T04:45:35.830Z,1011.17
2018-11-29T04:46:36.184Z,1011.17
2018-11-29T04:47:36.321Z,1011.16
2018-11-29T04:48:36.431Z,1011.11
2018-11-29T04:49:36.512Z,1011.02
2018-11-29T04:50:36.588Z,1011.02
2018-11-29T04:51:36.730Z,1011.00
2018-11-29T04:52:36.515Z,1010.95
2018-11-29T04:53:37.191Z,1011.01
2018-11-29T04:54:37.266Z,1010.95
2018-11-29T04:55:37.345Z,1010.99
2018-11-29T04:56:37.434Z,1010.91
2018-11-29T04:57:37.521Z,1010.84
2018-11-29T04:58:37.609Z,1010.80
2018-11-29T04:59:37.673Z,1010.82
2018-11-29T05:01:37.785Z,1010.76
2018-11-29T05:02:37.850Z,1010.80
2018-11-29T05:03:37.943Z,1010.84
2018-11-29T05:04:38.026Z,1010.80
2018-11-29T05:05:38.096Z,1010.80
2018-11-29T05:06:38.171Z,1010.85
2018-11-29T05:07:38.293Z,1010.82
2018-11-29T05:08:38.401Z,1010.85
2018-11-29T05:09:38.529Z,1010.81
2018-11-29T05:10:38.738Z,1010.75
2018-11-29T05:11:38.819Z,1010.72
2018-11-29T05:12:38.882Z,1010.74
2018-11-29T05:13:38.868Z,1010.68
2018-11-29T05:14:39.221Z,1010.73
2018-11-29T05:15:39.510Z,1010.77
2018-11-29T05:16:39.807Z,1010.76
2018-11-29T05:17:40.236Z,1010.75
2018-11-29T05:18:40.496Z,1010.75
2018-11-29T05:19:40.781Z,1010.72
2018-11-29T05:20:41.145Z,1010.69
2018-11-29T05:21:41.409Z,1010.76
2018-11-29T05:22:41.686Z,1010.74
2018-11-29T05:23:41.975Z,1010.75
2018-11-29T05:24:42.252Z,1010.70
2018-11-29T05:25:43.330Z,1010.67
2018-11-29T05:26:42.601Z,1010.66
2018-11-29T05:27:42.886Z,1010.64
2018-11-29T05:28:43.152Z,1010.72
2018-11-29T05:29:43.647Z,1010.77
2018-11-29T05:30:43.899Z,1010.71
2018-11-29T05:31:44.226Z,1010.66
2018-11-29T05:32:44.516Z,1010.64
2018-11-29T05:33:45.019Z,1010.62
2018-11-29T05:34:44.830Z,1010.55
2018-11-29T05:35:45.099Z,1010.38
2018-11-29T05:36:45.398Z,1010.38
2018-11-29T05:37:45.677Z,1010.44
2018-11-29T05:38:46.042Z,1010.39
2018-11-29T05:39:46.375Z,1010.33
2018-11-29T05:40:46.662Z,1010.32
2018-11-29T05:41:46.968Z,1010.30
2018-11-29T05:42:47.245Z,1010.29
2018-11-29T05:43:47.512Z,1010.35
2018-11-29T05:44:47.789Z,1010.28
2018-11-29T05:45:48.383Z,1010.30
2018-11-29T05:46:48.443Z,1010.26
2018-11-29T05:47:48.471Z,1010.33
2018-11-29T05:48:48.571Z,1010.30
2018-11-29T05:49:48.697Z,1010.30
2018-11-29T05:50:48.865Z,1010.33
2018-11-29T05:51:49.000Z,1010.31
2018-11-29T05:52:49.185Z,1010.40
2018-11-29T05:53:49.338Z,1010.39
2018-11-29T05:54:49.472Z,1010.37
2018-11-29T05:55:49.607Z,1010.39
2018-11-29T05:56:49.743Z,1010.39
2018-11-29T05:57:49.898Z,1010.43
2018-11-29T05:58:50.055Z,1010.46
2018-11-29T05:59:50.224Z,1010.47
2018-11-29T06:00:50.466Z,1010.49
2018-11-29T06:01:50.503Z,1010.50
2018-11-29T06:02:50.706Z,1010.48
2018-11-29T06:03:50.809Z,1010.52
2018-11-29T06:04:50.923Z,1010.52
2018-11-29T06:05:51.007Z,1010.54
2018-11-29T06:06:51.079Z,1010.49
2018-11-29T06:07:51.144Z,1010.44
2018-11-29T06:08:51.207Z,1010.33
2018-11-29T06:09:51.297Z,1010.38
2018-11-29T06:10:51.379Z,1010.35
2018-11-29T06:11:51.455Z,1010.29
2018-11-29T06:12:51.510Z,1010.37
2018-11-29T06:13:51.665Z,1010.32
2018-11-29T06:14:51.808Z,1010.36
2018-11-29T06:15:51.925Z,1010.39
2018-11-29T06:16:52.033Z,1010.38
2018-11-29T06:17:52.130Z,1010.41
2018-11-29T06:18:52.220Z,1010.45
2018-11-29T06:19:52.529Z,1010.38
2018-11-29T06:20:52.979Z,1010.42
2018-11-29T06:21:53.068Z,1010.46
2018-11-29T06:22:53.136Z,1010.51
2018-11-29T06:23:53.189Z,1010.38
2018-11-29T06:24:53.272Z,1010.43
2018-11-29T06:25:53.388Z,1010.38
2018-11-29T06:26:53.503Z,1010.34
2018-11-29T06:27:53.618Z,1010.33
2018-11-29T06:28:53.704Z,1010.33
2018-11-29T06:29:53.790Z,1010.34
2018-11-29T06:30:53.866Z,1010.32
2018-11-29T06:31:53.888Z,1010.35
2018-11-29T06:32:53.981Z,1010.32
2018-11-29T06:33:53.895Z,1010.31
2018-11-29T06:34:54.584Z,1010.30
2018-11-29T06:35:54.409Z,1010.37
2018-11-29T06:36:55.077Z,1010.32
2018-11-29T06:37:54.843Z,1010.32
2018-11-29T06:38:55.104Z,1010.31
2018-11-29T06:39:55.389Z,1010.29
2018-11-29T06:40:55.697Z,1010.36
2018-11-29T06:41:55.987Z,1010.31
2018-11-29T06:42:56.257Z,1010.35
2018-11-29T06:43:56.521Z,1010.30
2018-11-29T06:44:56.907Z,1010.25
2018-11-29T06:45:57.205Z,1010.35
2018-11-29T06:46:57.472Z,1010.33
2018-11-29T06:47:57.826Z,1010.32
2018-11-29T06:48:58.138Z,1010.25
2018-11-29T06:49:58.147Z,1010.34
2018-11-29T06:50:58.407Z,1010.40
2018-11-29T06:51:58.737Z,1010.30
2018-11-29T06:52:59.018Z,1010.32
2018-11-29T06:53:59.445Z,1010.33
2018-11-29T06:54:59.746Z,1010.29
2018-11-29T06:55:59.786Z,1010.24
2018-11-29T06:57:00.084Z,1010.31
2018-11-29T06:58:00.357Z,1010.25
2018-11-29T06:59:00.702Z,1010.22
2018-11-29T07:00:00.992Z,1010.24
2018-11-29T07:01:01.255Z,1010.27
2018-11-29T07:02:01.825Z,1010.27
2018-11-29T07:03:02.219Z,1010.22
2018-11-29T07:04:02.500Z,1010.26
2018-11-29T07:05:02.492Z,1010.14
2018-11-29T07:06:02.787Z,1010.17
2018-11-29T07:07:03.022Z,1010.22
2018-11-29T07:08:03.673Z,1010.09
2018-11-29T07:09:03.732Z,1010.14
2018-11-29T07:10:03.939Z,1010.14
2018-11-29T07:11:04.142Z,1010.10
2018-11-29T07:12:04.289Z,1010.16
2018-11-29T07:13:04.431Z,1010.09
2018-11-29T07:14:04.649Z,1010.15
2018-11-29T07:15:04.798Z,1010.05
2018-11-29T07:16:05.031Z,1010.06
2018-11-29T07:17:05.183Z,1010.11
2018-11-29T07:18:05.001Z,1010.12
2018-11-29T07:19:05.370Z,1010.07
2018-11-29T07:20:05.958Z,1010.12
2018-11-29T07:21:06.113Z,1010.17
2018-11-29T07:22:06.517Z,1010.06
2018-11-29T07:23:06.673Z,1010.13
2018-11-29T07:24:06.807Z,1010.21
2018-11-29T07:25:06.892Z,1010.16
2018-11-29T07:26:07.213Z,1010.16
2018-11-29T07:27:07.278Z,1010.16
2018-11-29T07:28:07.403Z,1010.20
2018-11-29T07:29:07.521Z,1010.15
2018-11-29T07:30:07.537Z,1010.16
2018-11-29T07:31:07.571Z,1010.12
2018-11-29T07:32:07.871Z,1010.09
2018-11-29T07:33:07.995Z,1010.04
2018-11-29T07:34:08.375Z,1010.05
2018-11-29T07:35:08.878Z,1010.03
2018-11-29T07:36:09.669Z,1010.01
2018-11-29T07:37:09.756Z,1010.01
2018-11-29T07:38:09.546Z,1010.01
2018-11-29T07:39:09.881Z,1009.98
2018-11-29T07:40:10.234Z,1009.97
2018-11-29T07:41:10.607Z,1009.97
2018-11-29T07:42:10.412Z,1009.97
2018-11-29T07:43:10.704Z,1009.98
2018-11-29T07:44:11.073Z,1009.98
2018-11-29T07:45:11.705Z,1009.99
2018-11-29T07:46:11.717Z,1010.00
2018-11-29T07:47:11.992Z,1010.00
2018-11-29T07:48:12.329Z,1010.00
2018-11-29T07:49:12.634Z,1010.02
2018-11-29T07:50:13.126Z,1010.03
2018-11-29T07:51:13.363Z,1010.05
2018-11-29T07:52:13.873Z,1010.06
2018-11-29T07:53:13.648Z,1010.06
2018-11-29T07:54:14.052Z,1010.04
2018-11-29T07:55:14.665Z,1010.03
2018-11-29T07:56:14.577Z,1010.03
2018-11-29T07:57:14.852Z,1010.02
2018-11-29T07:58:15.163Z,1010.05
2018-11-29T07:59:15.468Z,1010.05
2018-11-29T08:00:16.056Z,1010.06
2018-11-29T08:01:15.873Z,1010.10
2018-11-29T08:02:16.155Z,1010.10
2018-11-29T08:03:16.420Z,1010.12
2018-11-29T08:04:16.692Z,1010.10
2018-11-29T08:05:18.170Z,1010.10
2018-11-29T08:06:17.376Z,1010.09
2018-11-29T08:07:17.656Z,1010.12
2018-11-29T08:08:18.147Z,1010.12
2018-11-29T08:09:18.727Z,1010.12
2018-11-29T08:10:18.859Z,1010.13
2018-11-29T08:12:19.217Z,1010.13
2018-11-29T08:13:19.364Z,1010.15
2018-11-29T08:14:19.488Z,1010.16
2018-11-29T08:15:19.606Z,1010.17
2018-11-29T08:16:19.728Z,1010.15
2018-11-29T08:17:19.887Z,1010.12
2018-11-29T08:18:20.063Z,1010.12
2018-11-29T08:19:20.202Z,1010.13
2018-11-29T08:20:20.358Z,1010.13
2018-11-29T08:21:20.496Z,1010.14
2018-11-29T08:22:20.603Z,1010.12
2018-11-29T08:23:20.740Z,1010.14
2018-11-29T08:24:20.895Z,1010.13
2018-11-29T08:25:20.969Z,1010.14
2018-11-29T08:26:21.088Z,1010.12
2018-11-29T08:27:21.135Z,1010.10
2018-11-29T08:28:21.247Z,1010.08
2018-11-29T08:29:21.358Z,1010.08
2018-11-29T08:30:21.434Z,1010.06
2018-11-29T08:31:21.509Z,1010.06
2018-11-29T08:32:21.574Z,1010.05
2018-11-29T08:33:21.648Z,1010.04
2018-11-29T08:34:21.705Z,1010.04
2018-11-29T08:35:21.809Z,1010.00
2018-11-29T08:36:21.905Z,1009.99
2018-11-29T08:37:22.035Z,1009.96
2018-11-29T08:38:22.149Z,1009.91
2018-11-29T08:39:22.235Z,1009.90
2018-11-29T08:40:22.320Z,1009.89
2018-11-29T08:41:22.427Z,1009.89
2018-11-29T08:42:22.494Z,1009.88
2018-11-29T08:43:22.724Z,1009.89
2018-11-29T08:44:22.704Z,1009.90
2018-11-29T08:45:22.798Z,1009.92
2018-11-29T08:46:22.874Z,1009.93
2018-11-29T08:47:22.951Z,1009.93
2018-11-29T08:48:23.029Z,1009.94
2018-11-29T08:49:23.111Z,1009.94
2018-11-29T08:50:23.179Z,1009.95
2018-11-29T08:51:23.263Z,1009.94
2018-11-29T08:52:23.354Z,1009.93
2018-11-29T08:53:23.455Z,1009.90
2018-11-29T08:54:23.546Z,1009.89
2018-11-29T08:55:23.621Z,1009.87
2018-11-29T08:56:23.720Z,1009.85
2018-11-29T08:57:23.802Z,1009.86
2018-11-29T08:58:23.888Z,1009.84
2018-11-29T08:59:23.979Z,1009.84
2018-11-29T09:00:24.073Z,1009.83
2018-11-29T09:01:24.072Z,1009.83
2018-11-29T09:02:24.316Z,1009.84
2018-11-29T09:03:24.525Z,1009.86
2018-11-29T09:04:24.742Z,1009.87
2018-11-29T09:05:24.536Z,1009.87
2018-11-29T09:06:24.811Z,1009.88
2018-11-29T09:07:25.097Z,1009.89
2018-11-29T09:08:25.455Z,1009.87
2018-11-29T09:10:31.326Z,1009.86
2018-11-29T09:11:26.092Z,1009.86
2018-11-29T09:12:26.387Z,1009.86
2018-11-29T09:13:26.838Z,1009.88
2018-11-29T09:14:27.262Z,1009.90
2018-11-29T09:15:27.788Z,1009.91
2018-11-29T09:16:27.611Z,1009.92
2018-11-29T09:17:28.097Z,1009.94
2018-11-29T09:18:28.396Z,1009.93
2018-11-29T09:19:28.675Z,1009.93
2018-11-29T09:20:29.205Z,1009.93
2018-11-29T09:21:29.171Z,1009.93
2018-11-29T09:22:29.663Z,1009.95
2018-11-29T09:23:30.133Z,1009.96
2018-11-29T09:24:30.460Z,1009.95
2018-11-29T09:25:30.850Z,1009.94
2018-11-29T09:26:31.191Z,1009.93
2018-11-29T09:27:31.494Z,1009.94
2018-11-29T09:28:31.787Z,1009.93
2018-11-29T09:29:32.095Z,1009.92
2018-11-29T09:30:32.511Z,1009.91
2018-11-29T09:31:32.830Z,1009.89
2018-11-29T09:32:33.429Z,1009.90
2018-11-29T09:33:33.539Z,1009.90
2018-11-29T09:34:33.750Z,1009.85
2018-11-29T09:35:33.928Z,1009.84
2018-11-29T09:36:34.017Z,1009.81
2018-11-29T09:37:34.162Z,1009.76
2018-11-29T09:39:34.361Z,1009.75
2018-11-29T09:40:34.480Z,1009.73
2018-11-29T09:41:34.635Z,1009.71
2018-11-29T09:42:34.817Z,1009.70
2018-11-29T09:43:34.825Z,1009.68
2018-11-29T09:44:34.966Z,1009.67
2018-11-29T09:45:35.155Z,1009.66
2018-11-29T09:46:35.327Z,1009.66
2018-11-29T09:47:35.481Z,1009.67
2018-11-29T09:48:35.795Z,1009.68
2018-11-29T09:49:36.019Z,1009.70
2018-11-29T09:50:36.150Z,1009.70
2018-11-29T09:51:36.273Z,1009.70
2018-11-29T09:52:36.378Z,1009.71
2018-11-29T09:53:36.843Z,1009.69
2018-11-29T09:54:36.934Z,1009.70
2018-11-29T09:55:36.689Z,1009.70
2018-11-29T09:56:37.283Z,1009.69
2018-11-29T09:57:37.387Z,1009.69
2018-11-29T09:58:37.557Z,1009.69
2018-11-29T09:59:37.689Z,1009.67
2018-11-29T10:00:37.778Z,1009.67
2018-11-29T10:01:37.877Z,1009.66
2018-11-29T10:02:37.958Z,1009.65
2018-11-29T10:03:38.444Z,1009.63
2018-11-29T10:04:38.551Z,1009.60
2018-11-29T10:05:38.693Z,1009.59
2018-11-29T10:06:38.885Z,1009.57
2018-11-29T10:07:39.007Z,1009.57
2018-11-29T10:08:38.962Z,1009.57
2018-11-29T10:09:39.425Z,1009.59
2018-11-29T10:10:39.739Z,1009.60
2018-11-29T10:11:40.017Z,1009.58
2018-11-29T10:12:40.336Z,1009.57
2018-11-29T10:13:46.153Z,1009.57
2018-11-29T10:14:41.356Z,1009.56
2018-11-29T10:15:41.273Z,1009.55
2018-11-29T10:16:41.645Z,1009.53
2018-11-29T10:17:41.973Z,1009.52
2018-11-29T10:18:42.455Z,1009.52
2018-11-29T10:19:42.371Z,1009.51
2018-11-29T10:20:42.712Z,1009.50
2018-11-29T10:21:42.996Z,1009.48
2018-11-29T10:22:43.285Z,1009.46
2018-11-29T10:23:43.623Z,1009.45
2018-11-29T10:24:43.928Z,1009.46
2018-11-29T10:25:44.226Z,1009.46
2018-11-29T10:26:44.583Z,1009.45
2018-11-29T10:27:44.881Z,1009.45
2018-11-29T10:28:45.239Z,1009.43
2018-11-29T10:29:45.515Z,1009.43
2018-11-29T10:30:45.824Z,1009.42
2018-11-29T10:31:46.297Z,1009.41
2018-11-29T10:32:46.796Z,1009.39
2018-11-29T10:33:46.599Z,1009.38
2018-11-29T10:34:46.880Z,1009.36
2018-11-29T10:35:47.191Z,1009.35
2018-11-29T10:36:47.601Z,1009.33
2018-11-29T10:37:47.916Z,1009.31
2018-11-29T10:38:48.527Z,1009.29
2018-11-29T10:39:48.794Z,1009.26
2018-11-29T10:40:48.841Z,1009.24
2018-11-29T10:41:49.032Z,1009.21
2018-11-29T10:42:49.175Z,1009.20
2018-11-29T10:43:49.298Z,1009.19
2018-11-29T10:44:49.391Z,1009.19
2018-11-29T10:45:49.553Z,1009.19
2018-11-29T10:46:49.719Z,1009.19
2018-11-29T10:47:52.385Z,1009.16
2018-11-29T10:48:50.016Z,1009.13
2018-11-29T10:49:50.224Z,1009.11
2018-11-29T10:50:50.381Z,1009.10
2018-11-29T10:51:50.524Z,1009.12
2018-11-29T10:52:50.690Z,1009.10
2018-11-29T10:53:50.870Z,1009.09
2018-11-29T10:54:50.980Z,1009.09
2018-11-29T10:55:51.059Z,1009.09
2018-11-29T10:56:51.071Z,1009.09
2018-11-29T10:57:51.145Z,1009.07
2018-11-29T10:58:51.237Z,1009.07
2018-11-29T10:59:51.332Z,1009.06
2018-11-29T11:00:51.429Z,1009.04
2018-11-29T11:01:51.733Z,1009.05
2018-11-29T11:02:52.225Z,1009.04
2018-11-29T11:03:52.439Z,1009.04
2018-11-29T11:04:52.514Z,1009.05
2018-11-29T11:05:52.612Z,1009.04
2018-11-29T11:06:52.729Z,1009.04
2018-11-29T11:07:52.837Z,1009.01
2018-11-29T11:08:53.009Z,1009.00
2018-11-29T11:09:53.028Z,1008.98
2018-11-29T11:10:53.111Z,1008.96
2018-11-29T11:11:53.212Z,1009.00
2018-11-29T11:13:53.340Z,1009.00
2018-11-29T11:14:53.445Z,1009.01
2018-11-29T11:15:53.561Z,1009.02
2018-11-29T11:16:53.660Z,1009.02
2018-11-29T11:17:53.787Z,1008.99
2018-11-29T11:18:53.850Z,1008.98
2018-11-29T11:19:53.966Z,1008.96
2018-11-29T11:20:53.913Z,1008.92
2018-11-29T11:21:54.228Z,1008.92
2018-11-29T11:22:54.530Z,1008.92
2018-11-29T11:23:59.289Z,1008.90
2018-11-29T11:24:55.281Z,1008.90
2018-11-29T11:25:55.600Z,1008.88
2018-11-29T11:26:55.969Z,1008.85
2018-11-29T11:27:56.256Z,1008.83
2018-11-29T11:28:56.528Z,1008.85
2018-11-29T11:29:56.825Z,1008.83
2018-11-29T11:30:57.113Z,1008.81
2018-11-29T11:31:57.401Z,1008.81
2018-11-29T11:32:57.722Z,1008.79
2018-11-29T11:33:58.166Z,1008.79
2018-11-29T11:34:58.593Z,1008.78
2018-11-29T11:35:58.910Z,1008.78
2018-11-29T11:36:59.199Z,1008.78
2018-11-29T11:37:59.497Z,1008.77
2018-11-29T11:38:59.811Z,1008.76
2018-11-29T11:40:00.086Z,1008.73
2018-11-29T11:41:00.383Z,1008.73
2018-11-29T11:42:00.931Z,1008.71
2018-11-29T11:43:05.138Z,1008.71
2018-11-29T11:44:01.243Z,1008.69
2018-11-29T11:45:01.560Z,1008.69
2018-11-29T11:46:01.794Z,1008.67
2018-11-29T11:47:02.007Z,1008.65
2018-11-29T11:48:03.417Z,1008.62
2018-11-29T11:49:02.469Z,1008.60
2018-11-29T11:50:02.784Z,1008.60
2018-11-29T11:51:03.045Z,1008.59
2018-11-29T11:52:02.966Z,1008.58
2018-11-29T11:53:03.262Z,1008.59
2018-11-29T11:54:03.481Z,1008.59
2018-11-29T11:55:03.552Z,1008.58
2018-11-29T11:56:04.183Z,1008.58
2018-11-29T11:57:04.320Z,1008.55
2018-11-29T11:58:04.450Z,1008.55
2018-11-29T11:59:04.628Z,1008.53
2018-11-29T12:00:04.901Z,1008.52
2018-11-29T12:01:04.740Z,1008.51
2018-11-29T12:02:04.875Z,1008.52
2018-11-29T12:03:05.121Z,1008.51
2018-11-29T12:04:05.493Z,1008.50
2018-11-29T12:05:05.653Z,1008.47
2018-11-29T12:06:05.713Z,1008.46
2018-11-29T12:07:05.871Z,1008.42
2018-11-29T12:08:06.030Z,1008.40
2018-11-29T12:09:06.230Z,1008.39
2018-11-29T12:10:06.352Z,1008.38
2018-11-29T12:11:06.597Z,1008.36
2018-11-29T12:12:06.774Z,1008.35
2018-11-29T12:13:06.931Z,1008.34
2018-11-29T12:14:07.085Z,1008.33
2018-11-29T12:15:07.245Z,1008.32
2018-11-29T12:16:07.380Z,1008.30